RYR869U LZIB-LGKR
Flight info
| Callsign | RYR869U |
|---|---|
| Flight time | 1h 22m |
| Altitude | 37000 |
| Route | VAMOG DCT SIRDU DCT KOPRY DCT LURID DCT RODON DCT LIMJA N732 PITAS |
| Aircraft | B738/M-SDE3FGIJ1LRWY/SB1 |
Departure
| Time | 2026-04-29 12:19 |
|---|---|
| Airport | M. R. Štefánik Airport (LZIB) |
Arrival
| Time | 2026-04-29 13:42 |
|---|---|
| Airport | Corfu Ioannis Kapodistrias International Airport (LGKR) |
| Time | Latitude | Longitude | Altitude | Speed | Heading |
|---|---|---|---|---|---|
| 2026-04-29 11:56 | 48.16951 | 17.20142 | 440 ft | 0 kts | 313° |
| 2026-04-29 12:02 | 48.16951 | 17.20143 | 440 ft | 0 kts | 313° |
| 2026-04-29 12:03 | 48.16950 | 17.20143 | 440 ft | 0 kts | 313° |
| 2026-04-29 12:14 | 48.16948 | 17.20147 | 440 ft | 3 kts | 313° |
| 2026-04-29 12:14 | 48.16929 | 17.20176 | 425 ft | 4 kts | 310° |
| 2026-04-29 12:14 | 48.16917 | 17.20205 | 427 ft | 4 kts | 258° |
| 2026-04-29 12:14 | 48.16919 | 17.20215 | 426 ft | 0 kts | 224° |
| 2026-04-29 12:16 | 48.16917 | 17.20211 | 425 ft | 2 kts | 224° |
| 2026-04-29 12:16 | 48.16894 | 17.20178 | 433 ft | 7 kts | 224° |
| 2026-04-29 12:17 | 48.16835 | 17.20179 | 432 ft | 12 kts | 140° |
| 2026-04-29 12:17 | 48.16763 | 17.20285 | 431 ft | 16 kts | 136° |
| 2026-04-29 12:17 | 48.16674 | 17.20329 | 433 ft | 16 kts | 216° |
| 2026-04-29 12:17 | 48.16574 | 17.20203 | 425 ft | 22 kts | 220° |
| 2026-04-29 12:18 | 48.16454 | 17.20050 | 430 ft | 23 kts | 220° |
| 2026-04-29 12:18 | 48.16333 | 17.19895 | 433 ft | 22 kts | 221° |
| 2026-04-29 12:18 | 48.16204 | 17.19794 | 432 ft | 22 kts | 165° |
| 2026-04-29 12:18 | 48.16105 | 17.19950 | 431 ft | 20 kts | 91° |
| 2026-04-29 12:19 | 48.16296 | 17.20258 | 427 ft | 73 kts | 44° |
| 2026-04-29 12:19 | 48.16820 | 17.21009 | 423 ft | 133 kts | 44° |
| 2026-04-29 12:19 | 48.17595 | 17.22107 | 626 ft | 164 kts | 43° |
| 2026-04-29 12:19 | 48.18412 | 17.23265 | 1406 ft | 160 kts | 42° |
| 2026-04-29 12:20 | 48.19256 | 17.24405 | 2026 ft | 172 kts | 40° |
| 2026-04-29 12:20 | 48.20198 | 17.25759 | 2320 ft | 202 kts | 42° |
| 2026-04-29 12:20 | 48.21156 | 17.27457 | 2581 ft | 229 kts | 60° |
| 2026-04-29 12:20 | 48.21649 | 17.29846 | 3075 ft | 250 kts | 81° |
| 2026-04-29 12:21 | 48.21493 | 17.32470 | 3974 ft | 256 kts | 100° |
| 2026-04-29 12:21 | 48.21108 | 17.35079 | 4904 ft | 258 kts | 98° |
| 2026-04-29 12:21 | 48.20744 | 17.37748 | 5681 ft | 265 kts | 98° |
| 2026-04-29 12:21 | 48.20371 | 17.40471 | 6508 ft | 267 kts | 99° |
| 2026-04-29 12:22 | 48.19993 | 17.43213 | 7287 ft | 272 kts | 99° |
| 2026-04-29 12:22 | 48.19603 | 17.46039 | 7926 ft | 281 kts | 99° |
| 2026-04-29 12:22 | 48.19201 | 17.48945 | 8631 ft | 288 kts | 99° |
| 2026-04-29 12:22 | 48.18658 | 17.51864 | 9344 ft | 297 kts | 116° |
| 2026-04-29 12:23 | 48.17257 | 17.54159 | 10019 ft | 305 kts | 150° |
| 2026-04-29 12:23 | 48.15256 | 17.55285 | 10463 ft | 318 kts | 174° |
| 2026-04-29 12:23 | 48.12998 | 17.55136 | 10673 ft | 334 kts | 193° |
| 2026-04-29 12:23 | 48.10682 | 17.54436 | 11175 ft | 344 kts | 195° |
| 2026-04-29 12:24 | 48.08318 | 17.53678 | 11859 ft | 349 kts | 195° |
| 2026-04-29 12:24 | 48.05934 | 17.52911 | 12626 ft | 352 kts | 195° |
| 2026-04-29 12:24 | 48.04343 | 17.52398 | 13131 ft | 355 kts | 195° |
| 2026-04-29 12:24 | 48.01915 | 17.51614 | 13890 ft | 359 kts | 195° |
| 2026-04-29 12:25 | 47.99457 | 17.50821 | 14595 ft | 364 kts | 195° |
| 2026-04-29 12:25 | 47.96970 | 17.50020 | 15317 ft | 367 kts | 196° |
| 2026-04-29 12:25 | 47.91936 | 17.48404 | 16808 ft | 373 kts | 196° |
| 2026-04-29 12:26 | 47.89385 | 17.47586 | 17510 ft | 378 kts | 196° |
| 2026-04-29 12:26 | 47.86800 | 17.46758 | 18205 ft | 382 kts | 196° |
| 2026-04-29 12:26 | 47.84188 | 17.45922 | 18849 ft | 386 kts | 197° |
| 2026-04-29 12:26 | 47.81550 | 17.45079 | 19484 ft | 389 kts | 197° |
| 2026-04-29 12:27 | 47.78895 | 17.44233 | 20138 ft | 391 kts | 197° |
| 2026-04-29 12:27 | 47.76226 | 17.43383 | 20773 ft | 394 kts | 197° |
| 2026-04-29 12:27 | 47.73537 | 17.42527 | 21372 ft | 397 kts | 198° |
| 2026-04-29 12:27 | 47.70830 | 17.41666 | 21979 ft | 400 kts | 198° |
| 2026-04-29 12:28 | 47.68098 | 17.40798 | 22571 ft | 403 kts | 198° |
| 2026-04-29 12:28 | 47.65348 | 17.39924 | 23145 ft | 406 kts | 199° |
| 2026-04-29 12:28 | 47.62574 | 17.39044 | 23728 ft | 409 kts | 199° |
| 2026-04-29 12:28 | 47.59779 | 17.38159 | 24217 ft | 412 kts | 199° |
| 2026-04-29 12:29 | 47.56972 | 17.37271 | 24720 ft | 414 kts | 199° |
| 2026-04-29 12:29 | 47.54152 | 17.36381 | 25229 ft | 415 kts | 200° |
| 2026-04-29 12:29 | 47.51325 | 17.35490 | 25722 ft | 416 kts | 200° |
| 2026-04-29 12:29 | 47.48486 | 17.34596 | 26207 ft | 419 kts | 200° |
| 2026-04-29 12:30 | 47.45630 | 17.33696 | 26681 ft | 420 kts | 200° |
| 2026-04-29 12:30 | 47.42765 | 17.32795 | 27142 ft | 422 kts | 200° |
| 2026-04-29 12:30 | 47.39887 | 17.31891 | 27582 ft | 424 kts | 201° |
| 2026-04-29 12:30 | 47.36995 | 17.30982 | 28012 ft | 426 kts | 201° |
| 2026-04-29 12:31 | 47.34086 | 17.30070 | 28439 ft | 428 kts | 201° |
| 2026-04-29 12:31 | 47.31162 | 17.29154 | 28803 ft | 431 kts | 201° |
| 2026-04-29 12:31 | 47.28218 | 17.28232 | 29168 ft | 434 kts | 201° |
| 2026-04-29 12:31 | 47.25258 | 17.27307 | 29565 ft | 436 kts | 201° |
| 2026-04-29 12:32 | 47.22284 | 17.26380 | 29963 ft | 438 kts | 201° |
| 2026-04-29 12:32 | 47.19297 | 17.25449 | 30339 ft | 440 kts | 201° |
| 2026-04-29 12:32 | 47.16299 | 17.24516 | 30635 ft | 442 kts | 201° |
| 2026-04-29 12:32 | 47.13311 | 17.23587 | 30891 ft | 445 kts | 201° |
| 2026-04-29 12:33 | 47.10271 | 17.22641 | 31095 ft | 448 kts | 200° |
| 2026-04-29 12:33 | 47.07208 | 17.21690 | 31372 ft | 450 kts | 200° |
| 2026-04-29 12:33 | 47.04147 | 17.20745 | 31814 ft | 448 kts | 200° |
| 2026-04-29 12:33 | 47.01107 | 17.19810 | 32286 ft | 446 kts | 200° |
| 2026-04-29 12:34 | 46.98086 | 17.18879 | 32674 ft | 445 kts | 200° |
| 2026-04-29 12:34 | 46.95053 | 17.17943 | 33004 ft | 446 kts | 200° |
| 2026-04-29 12:34 | 46.92011 | 17.17043 | 33312 ft | 449 kts | 197° |
| 2026-04-29 12:34 | 46.88863 | 17.16709 | 33720 ft | 459 kts | 186° |
| 2026-04-29 12:35 | 46.85658 | 17.17067 | 34155 ft | 463 kts | 182° |
| 2026-04-29 12:35 | 46.82453 | 17.17547 | 34490 ft | 463 kts | 182° |
| 2026-04-29 12:35 | 46.79249 | 17.18035 | 34730 ft | 464 kts | 182° |
| 2026-04-29 12:35 | 46.76040 | 17.18512 | 34984 ft | 464 kts | 182° |
| 2026-04-29 12:36 | 46.72833 | 17.18975 | 35270 ft | 463 kts | 182° |
| 2026-04-29 12:36 | 46.69620 | 17.19425 | 35543 ft | 463 kts | 182° |
| 2026-04-29 12:36 | 46.66410 | 17.19864 | 35778 ft | 464 kts | 182° |
| 2026-04-29 12:36 | 46.63197 | 17.20297 | 36007 ft | 464 kts | 182° |
| 2026-04-29 12:37 | 46.59981 | 17.20729 | 36251 ft | 464 kts | 182° |
| 2026-04-29 12:37 | 46.56771 | 17.21159 | 36550 ft | 463 kts | 182° |
| 2026-04-29 12:37 | 46.53566 | 17.21588 | 36797 ft | 463 kts | 182° |
| 2026-04-29 12:37 | 46.50356 | 17.22017 | 37017 ft | 464 kts | 182° |
| 2026-04-29 12:38 | 46.47146 | 17.22446 | 37229 ft | 463 kts | 182° |
| 2026-04-29 12:38 | 46.40717 | 17.23304 | 37251 ft | 464 kts | 181° |
| 2026-04-29 12:39 | 46.34294 | 17.24162 | 37253 ft | 462 kts | 181° |
| 2026-04-29 12:39 | 46.27897 | 17.25014 | 37250 ft | 460 kts | 182° |
| 2026-04-29 12:40 | 46.21538 | 17.25859 | 37245 ft | 458 kts | 182° |
| 2026-04-29 12:40 | 46.15192 | 17.26698 | 37251 ft | 457 kts | 182° |
| 2026-04-29 12:41 | 46.08855 | 17.27534 | 37255 ft | 457 kts | 182° |
| 2026-04-29 12:41 | 46.02515 | 17.28368 | 37258 ft | 457 kts | 181° |
| 2026-04-29 12:42 | 45.96182 | 17.29200 | 37262 ft | 458 kts | 182° |
| 2026-04-29 12:42 | 45.89820 | 17.30034 | 37251 ft | 460 kts | 182° |
| 2026-04-29 12:43 | 45.83481 | 17.30863 | 37237 ft | 461 kts | 182° |
| 2026-04-29 12:43 | 45.77091 | 17.31698 | 37248 ft | 462 kts | 182° |
| 2026-04-29 12:44 | 45.70687 | 17.32533 | 37245 ft | 463 kts | 182° |
| 2026-04-29 12:44 | 45.64270 | 17.33366 | 37233 ft | 463 kts | 182° |
| 2026-04-29 12:45 | 45.57840 | 17.34201 | 37224 ft | 463 kts | 182° |
| 2026-04-29 12:45 | 45.51422 | 17.35031 | 37241 ft | 463 kts | 182° |
| 2026-04-29 12:46 | 45.45004 | 17.35861 | 37238 ft | 463 kts | 182° |
| 2026-04-29 12:46 | 45.38593 | 17.36686 | 37227 ft | 462 kts | 182° |
| 2026-04-29 12:47 | 45.32189 | 17.37509 | 37229 ft | 461 kts | 182° |
| 2026-04-29 12:47 | 45.25798 | 17.38328 | 37223 ft | 461 kts | 182° |
| 2026-04-29 12:48 | 45.19417 | 17.39145 | 37206 ft | 460 kts | 182° |
| 2026-04-29 12:48 | 45.13042 | 17.40155 | 37207 ft | 467 kts | 174° |
| 2026-04-29 12:49 | 45.06789 | 17.42990 | 37223 ft | 475 kts | 166° |
| 2026-04-29 12:49 | 45.00561 | 17.46170 | 37183 ft | 476 kts | 166° |
| 2026-04-29 12:50 | 44.94351 | 17.49296 | 37206 ft | 474 kts | 167° |
| 2026-04-29 12:50 | 44.88133 | 17.52363 | 37213 ft | 473 kts | 167° |
| 2026-04-29 12:51 | 44.81918 | 17.55397 | 37208 ft | 472 kts | 167° |
| 2026-04-29 12:51 | 44.75720 | 17.58413 | 37202 ft | 470 kts | 167° |
| 2026-04-29 12:52 | 44.69548 | 17.61412 | 37200 ft | 469 kts | 167° |
| 2026-04-29 12:52 | 44.63384 | 17.64401 | 37201 ft | 469 kts | 167° |
| 2026-04-29 12:53 | 44.57254 | 17.67366 | 37163 ft | 469 kts | 167° |
| 2026-04-29 12:53 | 44.51093 | 17.70341 | 37174 ft | 468 kts | 167° |
| 2026-04-29 12:54 | 44.44935 | 17.73308 | 37162 ft | 468 kts | 167° |
| 2026-04-29 12:54 | 44.38781 | 17.76268 | 37168 ft | 467 kts | 167° |
| 2026-04-29 12:55 | 44.32632 | 17.79217 | 37154 ft | 467 kts | 167° |
| 2026-04-29 12:55 | 44.26479 | 17.82160 | 37135 ft | 468 kts | 167° |
| 2026-04-29 12:56 | 44.20316 | 17.85103 | 37125 ft | 468 kts | 167° |
| 2026-04-29 12:56 | 44.14151 | 17.88041 | 37123 ft | 468 kts | 167° |
| 2026-04-29 12:57 | 44.07984 | 17.90973 | 37121 ft | 469 kts | 167° |
| 2026-04-29 12:57 | 44.01800 | 17.93906 | 37110 ft | 470 kts | 167° |
| 2026-04-29 12:58 | 43.95609 | 17.96835 | 37095 ft | 471 kts | 167° |
| 2026-04-29 12:58 | 43.89404 | 17.99766 | 37082 ft | 471 kts | 167° |
| 2026-04-29 12:59 | 43.83262 | 18.02662 | 37096 ft | 468 kts | 167° |
| 2026-04-29 12:59 | 43.77099 | 18.05562 | 37084 ft | 467 kts | 167° |
| 2026-04-29 13:00 | 43.70954 | 18.08445 | 37072 ft | 466 kts | 167° |
| 2026-04-29 13:00 | 43.64813 | 18.11319 | 37074 ft | 466 kts | 167° |
| 2026-04-29 13:01 | 43.58673 | 18.14187 | 37093 ft | 466 kts | 167° |
| 2026-04-29 13:01 | 43.52534 | 18.17048 | 37062 ft | 466 kts | 166° |
| 2026-04-29 13:02 | 43.46394 | 18.19904 | 37063 ft | 466 kts | 166° |
| 2026-04-29 13:02 | 43.40251 | 18.22755 | 37061 ft | 466 kts | 167° |
| 2026-04-29 13:03 | 43.34124 | 18.25595 | 37070 ft | 463 kts | 167° |
| 2026-04-29 13:03 | 43.28024 | 18.28415 | 37082 ft | 462 kts | 167° |
| 2026-04-29 13:04 | 43.21925 | 18.31227 | 37082 ft | 463 kts | 167° |
| 2026-04-29 13:04 | 43.15855 | 18.34019 | 37081 ft | 463 kts | 167° |
| 2026-04-29 13:05 | 43.09741 | 18.36827 | 37067 ft | 463 kts | 167° |
| 2026-04-29 13:05 | 43.03633 | 18.39627 | 37085 ft | 463 kts | 167° |
| 2026-04-29 13:06 | 42.97532 | 18.42417 | 37094 ft | 463 kts | 167° |
| 2026-04-29 13:06 | 42.91414 | 18.45209 | 37092 ft | 464 kts | 167° |
| 2026-04-29 13:07 | 42.85285 | 18.47999 | 37081 ft | 464 kts | 166° |
| 2026-04-29 13:07 | 42.79149 | 18.50788 | 37077 ft | 465 kts | 167° |
| 2026-04-29 13:08 | 42.73006 | 18.53575 | 37078 ft | 465 kts | 167° |
| 2026-04-29 13:08 | 42.66867 | 18.56355 | 37091 ft | 464 kts | 166° |
| 2026-04-29 13:09 | 42.60734 | 18.59124 | 37089 ft | 464 kts | 166° |
| 2026-04-29 13:09 | 42.54601 | 18.61888 | 37082 ft | 465 kts | 166° |
| 2026-04-29 13:10 | 42.48466 | 18.64647 | 37077 ft | 465 kts | 166° |
| 2026-04-29 13:10 | 42.42319 | 18.67405 | 37064 ft | 465 kts | 166° |
| 2026-04-29 13:11 | 42.36193 | 18.70150 | 37075 ft | 463 kts | 166° |
| 2026-04-29 13:11 | 42.30077 | 18.72885 | 37077 ft | 463 kts | 166° |
| 2026-04-29 13:12 | 42.25003 | 18.75148 | 37074 ft | 461 kts | 166° |
| 2026-04-29 13:12 | 42.18916 | 18.77859 | 37079 ft | 460 kts | 166° |
| 2026-04-29 13:13 | 42.12847 | 18.80556 | 37075 ft | 459 kts | 166° |
| 2026-04-29 13:13 | 42.06788 | 18.83243 | 37075 ft | 458 kts | 166° |
| 2026-04-29 13:14 | 42.00733 | 18.85923 | 37069 ft | 458 kts | 166° |
| 2026-04-29 13:14 | 41.94685 | 18.88595 | 37074 ft | 458 kts | 166° |
| 2026-04-29 13:15 | 41.88631 | 18.91264 | 37075 ft | 458 kts | 166° |
| 2026-04-29 13:15 | 41.82567 | 18.93932 | 37061 ft | 459 kts | 166° |
| 2026-04-29 13:16 | 41.76501 | 18.96595 | 37073 ft | 459 kts | 166° |
| 2026-04-29 13:16 | 41.70431 | 18.99256 | 37070 ft | 459 kts | 166° |
| 2026-04-29 13:17 | 41.64412 | 19.01888 | 37070 ft | 460 kts | 166° |
| 2026-04-29 13:17 | 41.58335 | 19.04542 | 37065 ft | 460 kts | 166° |
| 2026-04-29 13:18 | 41.52246 | 19.07195 | 36745 ft | 464 kts | 166° |
| 2026-04-29 13:18 | 41.49177 | 19.08530 | 36276 ft | 462 kts | 166° |
| 2026-04-29 13:18 | 41.46122 | 19.09859 | 35746 ft | 461 kts | 166° |
| 2026-04-29 13:18 | 41.43079 | 19.11233 | 35180 ft | 462 kts | 164° |
| 2026-04-29 13:19 | 41.40056 | 19.12694 | 34608 ft | 463 kts | 163° |
| 2026-04-29 13:19 | 41.37032 | 19.14197 | 33996 ft | 464 kts | 163° |
| 2026-04-29 13:19 | 41.34006 | 19.15708 | 33296 ft | 465 kts | 162° |
| 2026-04-29 13:19 | 41.30974 | 19.17216 | 32732 ft | 463 kts | 163° |
| 2026-04-29 13:20 | 41.27969 | 19.18700 | 32299 ft | 459 kts | 163° |
| 2026-04-29 13:20 | 41.24987 | 19.20163 | 31835 ft | 455 kts | 163° |
| 2026-04-29 13:20 | 41.22070 | 19.21587 | 31402 ft | 451 kts | 163° |
| 2026-04-29 13:20 | 41.19136 | 19.23014 | 30975 ft | 447 kts | 163° |
| 2026-04-29 13:21 | 41.16223 | 19.24428 | 30537 ft | 444 kts | 163° |
| 2026-04-29 13:21 | 41.13331 | 19.25830 | 30104 ft | 441 kts | 163° |
| 2026-04-29 13:21 | 41.10461 | 19.27220 | 29605 ft | 437 kts | 163° |
| 2026-04-29 13:21 | 41.07616 | 19.28598 | 29148 ft | 433 kts | 163° |
| 2026-04-29 13:22 | 41.04801 | 19.29960 | 28688 ft | 429 kts | 163° |
| 2026-04-29 13:22 | 41.02004 | 19.31311 | 28169 ft | 427 kts | 163° |
| 2026-04-29 13:22 | 40.99230 | 19.32650 | 27661 ft | 425 kts | 163° |
| 2026-04-29 13:22 | 40.96462 | 19.33986 | 27187 ft | 422 kts | 163° |
| 2026-04-29 13:23 | 40.93712 | 19.35312 | 26736 ft | 419 kts | 163° |
| 2026-04-29 13:23 | 40.90982 | 19.36626 | 26287 ft | 416 kts | 163° |
| 2026-04-29 13:23 | 40.88270 | 19.37932 | 25851 ft | 414 kts | 163° |
| 2026-04-29 13:23 | 40.85573 | 19.39228 | 25405 ft | 411 kts | 163° |
| 2026-04-29 13:24 | 40.82892 | 19.40516 | 24982 ft | 409 kts | 163° |
| 2026-04-29 13:24 | 40.80226 | 19.41796 | 24557 ft | 407 kts | 163° |
| 2026-04-29 13:24 | 40.77573 | 19.43068 | 24144 ft | 405 kts | 163° |
| 2026-04-29 13:24 | 40.74935 | 19.44332 | 23740 ft | 402 kts | 163° |
| 2026-04-29 13:25 | 40.72312 | 19.45588 | 23268 ft | 400 kts | 163° |
| 2026-04-29 13:25 | 40.67131 | 19.48066 | 22428 ft | 393 kts | 163° |
| 2026-04-29 13:25 | 40.64565 | 19.49292 | 21984 ft | 391 kts | 163° |
| 2026-04-29 13:26 | 40.62016 | 19.50509 | 21561 ft | 388 kts | 163° |
| 2026-04-29 13:26 | 40.59486 | 19.51715 | 21155 ft | 386 kts | 163° |
| 2026-04-29 13:26 | 40.56971 | 19.52914 | 20764 ft | 383 kts | 163° |
| 2026-04-29 13:26 | 40.54477 | 19.54099 | 20378 ft | 380 kts | 163° |
| 2026-04-29 13:27 | 40.51997 | 19.55275 | 19974 ft | 378 kts | 163° |
| 2026-04-29 13:27 | 40.49531 | 19.56444 | 19581 ft | 376 kts | 163° |
| 2026-04-29 13:27 | 40.47082 | 19.57603 | 19225 ft | 373 kts | 163° |
| 2026-04-29 13:27 | 40.44651 | 19.58754 | 18862 ft | 370 kts | 163° |
| 2026-04-29 13:28 | 40.42231 | 19.59898 | 18502 ft | 368 kts | 163° |
| 2026-04-29 13:28 | 40.39827 | 19.61034 | 18098 ft | 367 kts | 163° |
| 2026-04-29 13:28 | 40.37433 | 19.62165 | 17700 ft | 364 kts | 163° |
| 2026-04-29 13:28 | 40.35058 | 19.63286 | 17307 ft | 362 kts | 163° |
| 2026-04-29 13:29 | 40.32698 | 19.64399 | 16902 ft | 359 kts | 163° |
| 2026-04-29 13:29 | 40.30355 | 19.65503 | 16528 ft | 357 kts | 163° |
| 2026-04-29 13:29 | 40.28023 | 19.66602 | 16135 ft | 355 kts | 162° |
| 2026-04-29 13:29 | 40.25708 | 19.67691 | 15779 ft | 352 kts | 162° |
| 2026-04-29 13:30 | 40.23411 | 19.68771 | 15435 ft | 350 kts | 162° |
| 2026-04-29 13:30 | 40.21128 | 19.69844 | 15046 ft | 348 kts | 162° |
| 2026-04-29 13:30 | 40.18853 | 19.70912 | 14682 ft | 346 kts | 162° |
| 2026-04-29 13:30 | 40.16591 | 19.71974 | 14358 ft | 344 kts | 162° |
| 2026-04-29 13:31 | 40.14344 | 19.73027 | 14022 ft | 342 kts | 162° |
| 2026-04-29 13:31 | 40.12109 | 19.74075 | 13621 ft | 341 kts | 161° |
| 2026-04-29 13:31 | 40.09885 | 19.75116 | 13256 ft | 338 kts | 161° |
| 2026-04-29 13:31 | 40.07679 | 19.76149 | 12917 ft | 335 kts | 161° |
| 2026-04-29 13:32 | 40.05492 | 19.77172 | 12541 ft | 333 kts | 161° |
| 2026-04-29 13:32 | 40.03350 | 19.78173 | 12180 ft | 331 kts | 161° |
| 2026-04-29 13:32 | 40.01190 | 19.79182 | 11822 ft | 328 kts | 161° |
| 2026-04-29 13:32 | 39.99055 | 19.80179 | 11459 ft | 326 kts | 161° |
| 2026-04-29 13:33 | 39.96920 | 19.81175 | 11084 ft | 325 kts | 161° |
| 2026-04-29 13:33 | 39.94797 | 19.82165 | 10742 ft | 323 kts | 161° |
| 2026-04-29 13:33 | 39.92696 | 19.83144 | 10509 ft | 317 kts | 161° |
| 2026-04-29 13:33 | 39.90658 | 19.84093 | 10438 ft | 306 kts | 161° |
| 2026-04-29 13:34 | 39.88692 | 19.85033 | 10323 ft | 297 kts | 160° |
| 2026-04-29 13:34 | 39.86791 | 19.85987 | 9947 ft | 291 kts | 160° |
| 2026-04-29 13:34 | 39.84900 | 19.86946 | 9376 ft | 292 kts | 160° |
| 2026-04-29 13:34 | 39.83012 | 19.87905 | 8863 ft | 290 kts | 160° |
| 2026-04-29 13:35 | 39.81138 | 19.88855 | 8377 ft | 288 kts | 160° |
| 2026-04-29 13:35 | 39.79276 | 19.89796 | 7886 ft | 286 kts | 160° |
| 2026-04-29 13:35 | 39.77426 | 19.90730 | 7431 ft | 284 kts | 160° |
| 2026-04-29 13:35 | 39.75590 | 19.91656 | 6988 ft | 282 kts | 160° |
| 2026-04-29 13:36 | 39.73766 | 19.92573 | 6498 ft | 280 kts | 160° |
| 2026-04-29 13:36 | 39.71954 | 19.93483 | 5961 ft | 279 kts | 160° |
| 2026-04-29 13:36 | 39.70154 | 19.94388 | 5480 ft | 276 kts | 160° |
| 2026-04-29 13:36 | 39.68371 | 19.95285 | 5011 ft | 274 kts | 160° |
| 2026-04-29 13:37 | 39.66576 | 19.96064 | 4535 ft | 270 kts | 167° |
| 2026-04-29 13:37 | 39.64754 | 19.96618 | 4067 ft | 268 kts | 169° |
| 2026-04-29 13:37 | 39.62944 | 19.97128 | 3693 ft | 263 kts | 169° |
| 2026-04-29 13:37 | 39.61171 | 19.97618 | 3363 ft | 257 kts | 169° |
| 2026-04-29 13:38 | 39.59447 | 19.98086 | 3079 ft | 250 kts | 170° |
| 2026-04-29 13:38 | 39.57752 | 19.98550 | 2842 ft | 248 kts | 170° |
| 2026-04-29 13:38 | 39.56095 | 19.99006 | 2633 ft | 240 kts | 169° |
| 2026-04-29 13:38 | 39.54489 | 19.99439 | 2448 ft | 230 kts | 169° |
| 2026-04-29 13:39 | 39.52954 | 19.99817 | 2298 ft | 219 kts | 176° |
| 2026-04-29 13:39 | 39.51554 | 19.99377 | 2130 ft | 203 kts | 220° |
| 2026-04-29 13:39 | 39.50856 | 19.97917 | 2026 ft | 186 kts | 258° |
| 2026-04-29 13:39 | 39.50816 | 19.96304 | 1895 ft | 175 kts | 276° |
| 2026-04-29 13:40 | 39.51258 | 19.94881 | 1634 ft | 173 kts | 311° |
| 2026-04-29 13:40 | 39.52272 | 19.94091 | 1443 ft | 172 kts | 341° |
| 2026-04-29 13:40 | 39.53423 | 19.93670 | 1220 ft | 169 kts | 341° |
| 2026-04-29 13:40 | 39.54511 | 19.93255 | 1032 ft | 155 kts | 341° |
| 2026-04-29 13:41 | 39.55546 | 19.92863 | 818 ft | 154 kts | 342° |
| 2026-04-29 13:41 | 39.56565 | 19.92459 | 615 ft | 155 kts | 337° |
| 2026-04-29 13:41 | 39.57596 | 19.91970 | 403 ft | 160 kts | 338° |
| 2026-04-29 13:41 | 39.58672 | 19.91607 | 177 ft | 161 kts | 346° |
| 2026-04-29 13:42 | 39.59752 | 19.91325 | 22 ft | 151 kts | 347° |
| 2026-04-29 13:42 | 39.60571 | 19.91115 | 19 ft | 89 kts | 349° |
| 2026-04-29 13:42 | 39.60965 | 19.91014 | 18 ft | 31 kts | 349° |
| 2026-04-29 13:42 | 39.61046 | 19.91067 | 18 ft | 9 kts | 58° |
| 2026-04-29 13:43 | 39.61035 | 19.91134 | 19 ft | 9 kts | 159° |
| 2026-04-29 13:43 | 39.60973 | 19.91146 | 19 ft | 9 kts | 165° |
| 2026-04-29 13:43 | 39.60913 | 19.91161 | 18 ft | 9 kts | 171° |
| 2026-04-29 13:43 | 39.60856 | 19.91176 | 17 ft | 8 kts | 168° |
| 2026-04-29 13:44 | 39.60799 | 19.91192 | 18 ft | 8 kts | 168° |
| 2026-04-29 13:44 | 39.60744 | 19.91206 | 17 ft | 8 kts | 169° |
| 2026-04-29 13:44 | 39.60694 | 19.91229 | 17 ft | 8 kts | 126° |
| 2026-04-29 13:44 | 39.60697 | 19.91297 | 19 ft | 8 kts | 78° |
| 2026-04-29 13:45 | 39.60705 | 19.91345 | 17 ft | 3 kts | 79° |
| 2026-04-29 13:45 | 39.60706 | 19.91355 | 17 ft | 0 kts | 79° |